sensor_id;sensor_type;location;lat;lon;timestamp;P1;durP1;ratioP1;P2;durP2;ratioP2
44068;SDS011;29738;51.234;5.484;2022-12-07T00:01:12;20.17;;;12.27;;
44068;SDS011;29738;51.234;5.484;2022-12-07T00:03:40;17.83;;;9.68;;
44068;SDS011;29738;51.234;5.484;2022-12-07T00:06:08;17.00;;;10.20;;
44068;SDS011;29738;51.234;5.484;2022-12-07T00:08:35;17.50;;;10.35;;
44068;SDS011;29738;51.234;5.484;2022-12-07T00:11:11;20.25;;;10.95;;
44068;SDS011;29738;51.234;5.484;2022-12-07T00:13:39;19.80;;;10.18;;
44068;SDS011;29738;51.234;5.484;2022-12-07T00:16:07;17.67;;;11.00;;
44068;SDS011;29738;51.234;5.484;2022-12-07T00:18:34;16.92;;;10.38;;
44068;SDS011;29738;51.234;5.484;2022-12-07T00:21:01;19.27;;;11.55;;
44068;SDS011;29738;51.234;5.484;2022-12-07T00:23:31;23.40;;;12.40;;
44068;SDS011;29738;51.234;5.484;2022-12-07T00:26:05;18.38;;;10.85;;
44068;SDS011;29738;51.234;5.484;2022-12-07T00:28:38;18.52;;;10.32;;
44068;SDS011;29738;51.234;5.484;2022-12-07T00:31:10;19.38;;;12.00;;
44068;SDS011;29738;51.234;5.484;2022-12-07T00:33:38;21.67;;;11.88;;
44068;SDS011;29738;51.234;5.484;2022-12-07T00:36:05;19.10;;;12.02;;
44068;SDS011;29738;51.234;5.484;2022-12-07T00:38:34;22.70;;;12.45;;
44068;SDS011;29738;51.234;5.484;2022-12-07T00:41:02;21.75;;;12.43;;
44068;SDS011;29738;51.234;5.484;2022-12-07T00:43:30;17.10;;;11.23;;
44068;SDS011;29738;51.234;5.484;2022-12-07T00:45:56;19.95;;;11.68;;
44068;SDS011;29738;51.234;5.484;2022-12-07T00:48:22;19.77;;;11.63;;
44068;SDS011;29738;51.234;5.484;2022-12-07T00:50:49;20.02;;;11.18;;
44068;SDS011;29738;51.234;5.484;2022-12-07T00:53:15;18.13;;;10.88;;
44068;SDS011;29738;51.234;5.484;2022-12-07T00:55:41;20.25;;;13.10;;
44068;SDS011;29738;51.234;5.484;2022-12-07T00:58:08;18.15;;;11.00;;
44068;SDS011;29738;51.234;5.484;2022-12-07T01:00:35;18.50;;;10.65;;
44068;SDS011;29738;51.234;5.484;2022-12-07T01:03:02;20.02;;;11.35;;
44068;SDS011;29738;51.234;5.484;2022-12-07T01:05:29;15.95;;;10.32;;
44068;SDS011;29738;51.234;5.484;2022-12-07T01:07:55;19.88;;;13.30;;
44068;SDS011;29738;51.234;5.484;2022-12-07T01:10:20;21.30;;;9.93;;
44068;SDS011;29738;51.234;5.484;2022-12-07T01:12:46;16.30;;;9.13;;
44068;SDS011;29738;51.234;5.484;2022-12-07T01:15:12;19.27;;;11.15;;
44068;SDS011;29738;51.234;5.484;2022-12-07T01:17:38;18.65;;;11.48;;
44068;SDS011;29738;51.234;5.484;2022-12-07T01:20:04;18.95;;;11.13;;
44068;SDS011;29738;51.234;5.484;2022-12-07T01:22:30;19.50;;;10.98;;
44068;SDS011;29738;51.234;5.484;2022-12-07T01:24:56;17.70;;;11.45;;
44068;SDS011;29738;51.234;5.484;2022-12-07T01:27:21;18.67;;;11.88;;
44068;SDS011;29738;51.234;5.484;2022-12-07T01:29:47;24.05;;;14.07;;
44068;SDS011;29738;51.234;5.484;2022-12-07T01:32:13;25.52;;;13.15;;
44068;SDS011;29738;51.234;5.484;2022-12-07T01:34:39;25.48;;;13.07;;
44068;SDS011;29738;51.234;5.484;2022-12-07T01:37:05;19.83;;;11.73;;
44068;SDS011;29738;51.234;5.484;2022-12-07T01:39:30;22.05;;;13.43;;
44068;SDS011;29738;51.234;5.484;2022-12-07T01:41:56;18.40;;;11.75;;
44068;SDS011;29738;51.234;5.484;2022-12-07T01:44:26;19.95;;;12.18;;
44068;SDS011;29738;51.234;5.484;2022-12-07T01:49:23;22.63;;;13.23;;
44068;SDS011;29738;51.234;5.484;2022-12-07T01:52:33;20.20;;;12.02;;
44068;SDS011;29738;51.234;5.484;2022-12-07T01:55:01;16.00;;;10.63;;
44068;SDS011;29738;51.234;5.484;2022-12-07T01:57:31;18.30;;;11.80;;
44068;SDS011;29738;51.234;5.484;2022-12-07T01:59:59;21.40;;;11.98;;
44068;SDS011;29738;51.234;5.484;2022-12-07T02:02:27;20.17;;;12.82;;
44068;SDS011;29738;51.234;5.484;2022-12-07T02:05:03;15.80;;;10.82;;
44068;SDS011;29738;51.234;5.484;2022-12-07T02:07:30;26.58;;;13.60;;
44068;SDS011;29738;51.234;5.484;2022-12-07T02:09:57;16.27;;;10.02;;
44068;SDS011;29738;51.234;5.484;2022-12-07T02:12:40;21.05;;;12.52;;
44068;SDS011;29738;51.234;5.484;2022-12-07T02:15:08;18.48;;;11.27;;
44068;SDS011;29738;51.234;5.484;2022-12-07T02:17:47;18.05;;;10.65;;
44068;SDS011;29738;51.234;5.484;2022-12-07T02:20:23;14.98;;;9.93;;
44068;SDS011;29738;51.234;5.484;2022-12-07T02:31:40;15.77;;;10.45;;
44068;SDS011;29738;51.234;5.484;2022-12-07T02:37:10;19.77;;;11.18;;
44068;SDS011;29738;51.234;5.484;2022-12-07T02:40:33;18.10;;;11.27;;
44068;SDS011;29738;51.234;5.484;2022-12-07T02:42:48;20.40;;;11.45;;
44068;SDS011;29738;51.234;5.484;2022-12-07T02:45:22;16.48;;;10.05;;
44068;SDS011;29738;51.234;5.484;2022-12-07T02:47:51;17.00;;;10.60;;
44068;SDS011;29738;51.234;5.484;2022-12-07T02:50:21;19.17;;;11.77;;
44068;SDS011;29738;51.234;5.484;2022-12-07T02:52:47;17.30;;;10.68;;
44068;SDS011;29738;51.234;5.484;2022-12-07T02:55:14;11.13;;;6.80;;
44068;SDS011;29738;51.234;5.484;2022-12-07T03:00:26;18.58;;;12.20;;
44068;SDS011;29738;51.234;5.484;2022-12-07T03:03:06;13.05;;;7.72;;
44068;SDS011;29738;51.234;5.484;2022-12-07T03:11:03;17.42;;;9.18;;
44068;SDS011;29738;51.234;5.484;2022-12-07T03:13:58;16.23;;;10.18;;
44068;SDS011;29738;51.234;5.484;2022-12-07T03:16:36;15.43;;;9.88;;
44068;SDS011;29738;51.234;5.484;2022-12-07T03:19:15;16.17;;;8.75;;
44068;SDS011;29738;51.234;5.484;2022-12-07T03:21:46;13.88;;;8.48;;
44068;SDS011;29738;51.234;5.484;2022-12-07T03:24:18;18.73;;;10.18;;
44068;SDS011;29738;51.234;5.484;2022-12-07T03:26:51;18.27;;;8.55;;
44068;SDS011;29738;51.234;5.484;2022-12-07T03:29:29;13.95;;;8.45;;
44068;SDS011;29738;51.234;5.484;2022-12-07T03:32:03;13.18;;;8.02;;
44068;SDS011;29738;51.234;5.484;2022-12-07T03:34:44;15.25;;;9.10;;
44068;SDS011;29738;51.234;5.484;2022-12-07T03:37:18;18.52;;;7.57;;
44068;SDS011;29738;51.234;5.484;2022-12-07T03:40:29;15.38;;;8.50;;
44068;SDS011;29738;51.234;5.484;2022-12-07T03:43:08;17.45;;;8.32;;
44068;SDS011;29738;51.234;5.484;2022-12-07T03:45:41;14.93;;;8.40;;
44068;SDS011;29738;51.234;5.484;2022-12-07T03:51:06;13.73;;;7.40;;
44068;SDS011;29738;51.234;5.484;2022-12-07T03:54:07;12.27;;;8.07;;
44068;SDS011;29738;51.234;5.484;2022-12-07T03:56:37;13.15;;;7.53;;
44068;SDS011;29738;51.234;5.484;2022-12-07T03:59:05;14.48;;;8.52;;
44068;SDS011;29738;51.234;5.484;2022-12-07T04:01:32;11.68;;;6.43;;
44068;SDS011;29738;51.234;5.484;2022-12-07T04:03:58;10.68;;;6.00;;
44068;SDS011;29738;51.234;5.484;2022-12-07T04:06:23;14.73;;;7.93;;
44068;SDS011;29738;51.234;5.484;2022-12-07T04:08:49;13.40;;;7.47;;
44068;SDS011;29738;51.234;5.484;2022-12-07T04:11:15;13.18;;;7.15;;
44068;SDS011;29738;51.234;5.484;2022-12-07T04:13:41;11.50;;;6.57;;
44068;SDS011;29738;51.234;5.484;2022-12-07T04:16:25;15.10;;;8.05;;
44068;SDS011;29738;51.234;5.484;2022-12-07T04:18:51;12.95;;;7.80;;
44068;SDS011;29738;51.234;5.484;2022-12-07T04:21:16;12.10;;;7.70;;
44068;SDS011;29738;51.234;5.484;2022-12-07T04:23:42;13.05;;;7.60;;
44068;SDS011;29738;51.234;5.484;2022-12-07T04:26:08;16.40;;;8.77;;
44068;SDS011;29738;51.234;5.484;2022-12-07T04:28:34;15.00;;;9.25;;
44068;SDS011;29738;51.234;5.484;2022-12-07T04:30:59;13.73;;;7.50;;
44068;SDS011;29738;51.234;5.484;2022-12-07T04:33:25;14.90;;;7.88;;
44068;SDS011;29738;51.234;5.484;2022-12-07T04:35:51;15.98;;;8.52;;
44068;SDS011;29738;51.234;5.484;2022-12-07T04:38:17;11.93;;;7.20;;
44068;SDS011;29738;51.234;5.484;2022-12-07T04:40:43;14.20;;;6.97;;
44068;SDS011;29738;51.234;5.484;2022-12-07T04:43:08;13.43;;;6.57;;
44068;SDS011;29738;51.234;5.484;2022-12-07T04:45:34;10.88;;;6.65;;
44068;SDS011;29738;51.234;5.484;2022-12-07T04:48:00;11.57;;;6.80;;
44068;SDS011;29738;51.234;5.484;2022-12-07T04:50:27;12.13;;;6.80;;
44068;SDS011;29738;51.234;5.484;2022-12-07T04:52:52;12.45;;;6.50;;
44068;SDS011;29738;51.234;5.484;2022-12-07T04:55:18;11.27;;;6.70;;
44068;SDS011;29738;51.234;5.484;2022-12-07T04:57:44;11.18;;;7.10;;
44068;SDS011;29738;51.234;5.484;2022-12-07T05:00:10;11.43;;;6.75;;
44068;SDS011;29738;51.234;5.484;2022-12-07T05:02:37;11.10;;;6.47;;
44068;SDS011;29738;51.234;5.484;2022-12-07T05:05:03;13.90;;;6.97;;
44068;SDS011;29738;51.234;5.484;2022-12-07T05:07:29;15.95;;;7.28;;
44068;SDS011;29738;51.234;5.484;2022-12-07T05:09:55;14.73;;;6.88;;
44068;SDS011;29738;51.234;5.484;2022-12-07T05:12:20;10.93;;;6.93;;
44068;SDS011;29738;51.234;5.484;2022-12-07T05:14:46;12.55;;;6.82;;
44068;SDS011;29738;51.234;5.484;2022-12-07T05:17:12;16.30;;;10.07;;
44068;SDS011;29738;51.234;5.484;2022-12-07T05:19:38;15.98;;;9.57;;
44068;SDS011;29738;51.234;5.484;2022-12-07T05:22:04;16.58;;;10.20;;
44068;SDS011;29738;51.234;5.484;2022-12-07T05:24:30;15.13;;;8.60;;
44068;SDS011;29738;51.234;5.484;2022-12-07T05:26:56;15.85;;;10.00;;
44068;SDS011;29738;51.234;5.484;2022-12-07T05:29:21;11.55;;;7.13;;
44068;SDS011;29738;51.234;5.484;2022-12-07T05:31:47;21.25;;;9.80;;
44068;SDS011;29738;51.234;5.484;2022-12-07T05:34:13;17.38;;;10.15;;
44068;SDS011;29738;51.234;5.484;2022-12-07T05:36:39;18.65;;;10.23;;
44068;SDS011;29738;51.234;5.484;2022-12-07T05:39:05;18.60;;;11.07;;
44068;SDS011;29738;51.234;5.484;2022-12-07T05:41:32;17.38;;;8.70;;
44068;SDS011;29738;51.234;5.484;2022-12-07T05:44:16;13.98;;;9.13;;
44068;SDS011;29738;51.234;5.484;2022-12-07T05:46:42;15.75;;;8.23;;
44068;SDS011;29738;51.234;5.484;2022-12-07T05:49:08;10.88;;;5.68;;
44068;SDS011;29738;51.234;5.484;2022-12-07T05:51:33;13.55;;;6.70;;
44068;SDS011;29738;51.234;5.484;2022-12-07T05:53:59;12.32;;;5.65;;
44068;SDS011;29738;51.234;5.484;2022-12-07T05:56:25;13.13;;;7.95;;
44068;SDS011;29738;51.234;5.484;2022-12-07T05:58:52;12.40;;;6.85;;
44068;SDS011;29738;51.234;5.484;2022-12-07T06:01:36;10.57;;;6.18;;
44068;SDS011;29738;51.234;5.484;2022-12-07T06:04:02;11.35;;;5.20;;
44068;SDS011;29738;51.234;5.484;2022-12-07T06:06:28;14.63;;;6.25;;
44068;SDS011;29738;51.234;5.484;2022-12-07T06:08:53;12.25;;;5.25;;
44068;SDS011;29738;51.234;5.484;2022-12-07T06:11:19;15.98;;;6.18;;
44068;SDS011;29738;51.234;5.484;2022-12-07T06:14:03;11.65;;;6.70;;
44068;SDS011;29738;51.234;5.484;2022-12-07T06:16:29;15.05;;;7.35;;
44068;SDS011;29738;51.234;5.484;2022-12-07T06:18:55;15.90;;;7.53;;
44068;SDS011;29738;51.234;5.484;2022-12-07T06:21:21;16.40;;;9.25;;
44068;SDS011;29738;51.234;5.484;2022-12-07T06:23:46;18.63;;;10.30;;
44068;SDS011;29738;51.234;5.484;2022-12-07T06:26:13;22.52;;;10.70;;
44068;SDS011;29738;51.234;5.484;2022-12-07T06:28:42;15.50;;;7.53;;
44068;SDS011;29738;51.234;5.484;2022-12-07T06:31:08;16.95;;;8.77;;
44068;SDS011;29738;51.234;5.484;2022-12-07T06:33:34;19.75;;;10.45;;
44068;SDS011;29738;51.234;5.484;2022-12-07T06:36:00;15.88;;;8.15;;
44068;SDS011;29738;51.234;5.484;2022-12-07T06:38:26;14.07;;;8.13;;
44068;SDS011;29738;51.234;5.484;2022-12-07T06:40:52;19.77;;;9.82;;
44068;SDS011;29738;51.234;5.484;2022-12-07T06:43:17;18.23;;;10.38;;
44068;SDS011;29738;51.234;5.484;2022-12-07T06:45:43;17.33;;;8.90;;
44068;SDS011;29738;51.234;5.484;2022-12-07T06:48:09;16.23;;;9.38;;
44068;SDS011;29738;51.234;5.484;2022-12-07T06:50:35;17.48;;;9.93;;
44068;SDS011;29738;51.234;5.484;2022-12-07T06:53:02;21.67;;;10.35;;
44068;SDS011;29738;51.234;5.484;2022-12-07T06:55:28;16.23;;;9.77;;
44068;SDS011;29738;51.234;5.484;2022-12-07T06:57:54;20.55;;;12.07;;
44068;SDS011;29738;51.234;5.484;2022-12-07T07:00:19;15.75;;;8.60;;
44068;SDS011;29738;51.234;5.484;2022-12-07T07:02:45;21.30;;;10.88;;
44068;SDS011;29738;51.234;5.484;2022-12-07T07:05:11;12.93;;;8.73;;
44068;SDS011;29738;51.234;5.484;2022-12-07T07:07:37;19.08;;;10.00;;
44068;SDS011;29738;51.234;5.484;2022-12-07T07:10:03;17.40;;;11.48;;
44068;SDS011;29738;51.234;5.484;2022-12-07T07:12:29;23.17;;;13.25;;
44068;SDS011;29738;51.234;5.484;2022-12-07T07:14:55;17.27;;;10.85;;
44068;SDS011;29738;51.234;5.484;2022-12-07T07:17:21;17.13;;;10.68;;
44068;SDS011;29738;51.234;5.484;2022-12-07T07:19:47;23.42;;;14.25;;
44068;SDS011;29738;51.234;5.484;2022-12-07T07:22:13;18.13;;;10.75;;
44068;SDS011;29738;51.234;5.484;2022-12-07T07:24:38;16.60;;;9.98;;
44068;SDS011;29738;51.234;5.484;2022-12-07T07:27:04;24.77;;;12.93;;
44068;SDS011;29738;51.234;5.484;2022-12-07T07:29:30;28.02;;;13.95;;
44068;SDS011;29738;51.234;5.484;2022-12-07T07:31:56;25.95;;;14.35;;
44068;SDS011;29738;51.234;5.484;2022-12-07T07:34:21;30.08;;;15.52;;
44068;SDS011;29738;51.234;5.484;2022-12-07T07:36:47;17.80;;;10.95;;
44068;SDS011;29738;51.234;5.484;2022-12-07T07:39:13;21.92;;;13.07;;
44068;SDS011;29738;51.234;5.484;2022-12-07T07:41:39;26.90;;;13.73;;
44068;SDS011;29738;51.234;5.484;2022-12-07T07:44:05;31.35;;;19.70;;
44068;SDS011;29738;51.234;5.484;2022-12-07T07:46:30;26.38;;;14.57;;
44068;SDS011;29738;51.234;5.484;2022-12-07T07:48:58;28.80;;;16.23;;
44068;SDS011;29738;51.234;5.484;2022-12-07T07:51:23;30.15;;;16.48;;
44068;SDS011;29738;51.234;5.484;2022-12-07T07:53:49;44.95;;;30.50;;
44068;SDS011;29738;51.234;5.484;2022-12-07T07:56:15;33.95;;;20.80;;
44068;SDS011;29738;51.234;5.484;2022-12-07T07:58:41;35.20;;;20.55;;
44068;SDS011;29738;51.234;5.484;2022-12-07T08:01:07;40.72;;;25.25;;
44068;SDS011;29738;51.234;5.484;2022-12-07T08:03:33;28.52;;;15.32;;
44068;SDS011;29738;51.234;5.484;2022-12-07T08:05:59;29.60;;;16.00;;
44068;SDS011;29738;51.234;5.484;2022-12-07T08:08:26;31.02;;;18.23;;
44068;SDS011;29738;51.234;5.484;2022-12-07T08:10:52;28.27;;;14.40;;
44068;SDS011;29738;51.234;5.484;2022-12-07T08:13:18;27.00;;;14.65;;
44068;SDS011;29738;51.234;5.484;2022-12-07T08:15:45;25.58;;;13.68;;
44068;SDS011;29738;51.234;5.484;2022-12-07T08:18:12;26.35;;;15.23;;
44068;SDS011;29738;51.234;5.484;2022-12-07T08:20:39;26.77;;;13.88;;
44068;SDS011;29738;51.234;5.484;2022-12-07T08:23:07;23.95;;;13.55;;
44068;SDS011;29738;51.234;5.484;2022-12-07T08:25:33;27.27;;;14.80;;
44068;SDS011;29738;51.234;5.484;2022-12-07T08:28:00;25.95;;;13.60;;
44068;SDS011;29738;51.234;5.484;2022-12-07T08:30:26;19.20;;;11.07;;
44068;SDS011;29738;51.234;5.484;2022-12-07T08:32:53;29.73;;;16.33;;
44068;SDS011;29738;51.234;5.484;2022-12-07T08:35:19;24.88;;;15.40;;
44068;SDS011;29738;51.234;5.484;2022-12-07T08:37:44;32.30;;;18.50;;
44068;SDS011;29738;51.234;5.484;2022-12-07T08:40:11;54.22;;;35.40;;
44068;SDS011;29738;51.234;5.484;2022-12-07T08:42:43;139.98;;;80.28;;
44068;SDS011;29738;51.234;5.484;2022-12-07T08:45:13;158.98;;;97.15;;
44068;SDS011;29738;51.234;5.484;2022-12-07T08:47:42;26.85;;;17.50;;
44068;SDS011;29738;51.234;5.484;2022-12-07T08:50:11;30.42;;;15.95;;
44068;SDS011;29738;51.234;5.484;2022-12-07T08:52:38;26.73;;;16.33;;
44068;SDS011;29738;51.234;5.484;2022-12-07T08:55:06;12.90;;;8.45;;
44068;SDS011;29738;51.234;5.484;2022-12-07T08:57:32;23.02;;;11.18;;
44068;SDS011;29738;51.234;5.484;2022-12-07T08:59:59;16.05;;;10.70;;
44068;SDS011;29738;51.234;5.484;2022-12-07T09:02:25;17.17;;;9.85;;
44068;SDS011;29738;51.234;5.484;2022-12-07T09:04:51;21.00;;;13.88;;
44068;SDS011;29738;51.234;5.484;2022-12-07T09:07:17;25.50;;;16.67;;
44068;SDS011;29738;51.234;5.484;2022-12-07T09:09:43;18.45;;;10.30;;
44068;SDS011;29738;51.234;5.484;2022-12-07T09:12:08;27.67;;;16.63;;
44068;SDS011;29738;51.234;5.484;2022-12-07T09:14:35;19.63;;;14.30;;
44068;SDS011;29738;51.234;5.484;2022-12-07T09:17:05;30.23;;;20.58;;
44068;SDS011;29738;51.234;5.484;2022-12-07T09:19:32;18.90;;;12.30;;
44068;SDS011;29738;51.234;5.484;2022-12-07T09:21:58;14.70;;;8.98;;
44068;SDS011;29738;51.234;5.484;2022-12-07T09:24:24;23.05;;;14.43;;
44068;SDS011;29738;51.234;5.484;2022-12-07T09:26:49;28.50;;;15.85;;
44068;SDS011;29738;51.234;5.484;2022-12-07T09:29:15;14.98;;;9.82;;
44068;SDS011;29738;51.234;5.484;2022-12-07T09:31:41;20.73;;;13.52;;
44068;SDS011;29738;51.234;5.484;2022-12-07T09:34:07;24.35;;;14.68;;
44068;SDS011;29738;51.234;5.484;2022-12-07T09:36:32;20.40;;;11.55;;
44068;SDS011;29738;51.234;5.484;2022-12-07T09:38:58;20.05;;;11.25;;
44068;SDS011;29738;51.234;5.484;2022-12-07T09:41:25;19.65;;;11.10;;
44068;SDS011;29738;51.234;5.484;2022-12-07T09:43:53;16.95;;;10.23;;
44068;SDS011;29738;51.234;5.484;2022-12-07T09:46:28;17.98;;;10.85;;
44068;SDS011;29738;51.234;5.484;2022-12-07T09:48:59;22.38;;;10.82;;
44068;SDS011;29738;51.234;5.484;2022-12-07T09:51:25;21.42;;;11.10;;
44068;SDS011;29738;51.234;5.484;2022-12-07T09:53:52;16.63;;;10.00;;
44068;SDS011;29738;51.234;5.484;2022-12-07T09:56:19;14.98;;;8.05;;
44068;SDS011;29738;51.234;5.484;2022-12-07T09:58:46;14.90;;;7.55;;
44068;SDS011;29738;51.234;5.484;2022-12-07T10:01:20;18.17;;;9.60;;
44068;SDS011;29738;51.234;5.484;2022-12-07T10:03:51;13.15;;;7.10;;
44068;SDS011;29738;51.234;5.484;2022-12-07T10:06:19;16.23;;;7.53;;
44068;SDS011;29738;51.234;5.484;2022-12-07T10:08:45;15.18;;;9.23;;
44068;SDS011;29738;51.234;5.484;2022-12-07T10:11:12;14.88;;;7.45;;
44068;SDS011;29738;51.234;5.484;2022-12-07T10:16:25;14.77;;;8.05;;
44068;SDS011;29738;51.234;5.484;2022-12-07T10:18:57;18.05;;;11.60;;
44068;SDS011;29738;51.234;5.484;2022-12-07T10:22:09;19.90;;;10.32;;
44068;SDS011;29738;51.234;5.484;2022-12-07T10:24:40;45.85;;;29.30;;
44068;SDS011;29738;51.234;5.484;2022-12-07T10:27:18;11.57;;;7.22;;
44068;SDS011;29738;51.234;5.484;2022-12-07T10:29:47;52.78;;;27.80;;
44068;SDS011;29738;51.234;5.484;2022-12-07T10:34:41;14.55;;;9.93;;
44068;SDS011;29738;51.234;5.484;2022-12-07T10:39:46;12.90;;;8.77;;
44068;SDS011;29738;51.234;5.484;2022-12-07T10:44:46;11.60;;;7.38;;
44068;SDS011;29738;51.234;5.484;2022-12-07T10:49:53;17.42;;;11.57;;
44068;SDS011;29738;51.234;5.484;2022-12-07T11:06:21;10.18;;;5.95;;
44068;SDS011;29738;51.234;5.484;2022-12-07T11:26:06;10.00;;;5.30;;
44068;SDS011;29738;51.234;5.484;2022-12-07T11:34:50;12.40;;;4.78;;
44068;SDS011;29738;51.234;5.484;2022-12-07T11:37:19;7.35;;;4.22;;
44068;SDS011;29738;51.234;5.484;2022-12-07T11:39:51;8.85;;;4.57;;
44068;SDS011;29738;51.234;5.484;2022-12-07T11:42:27;11.93;;;6.57;;
44068;SDS011;29738;51.234;5.484;2022-12-07T11:45:00;8.55;;;5.30;;
44068;SDS011;29738;51.234;5.484;2022-12-07T11:50:23;17.08;;;5.32;;
44068;SDS011;29738;51.234;5.484;2022-12-07T11:53:03;8.73;;;4.82;;
44068;SDS011;29738;51.234;5.484;2022-12-07T11:55:49;11.57;;;6.38;;
44068;SDS011;29738;51.234;5.484;2022-12-07T12:03:58;11.18;;;5.28;;
44068;SDS011;29738;51.234;5.484;2022-12-07T12:06:41;12.48;;;7.13;;
44068;SDS011;29738;51.234;5.484;2022-12-07T12:09:16;6.85;;;4.03;;
44068;SDS011;29738;51.234;5.484;2022-12-07T12:14:46;10.13;;;5.13;;
44068;SDS011;29738;51.234;5.484;2022-12-07T12:20:03;9.13;;;4.82;;
44068;SDS011;29738;51.234;5.484;2022-12-07T12:25:36;10.63;;;5.28;;
44068;SDS011;29738;51.234;5.484;2022-12-07T12:28:32;9.98;;;4.63;;
44068;SDS011;29738;51.234;5.484;2022-12-07T12:31:15;8.07;;;4.28;;
44068;SDS011;29738;51.234;5.484;2022-12-07T12:33:46;6.63;;;3.78;;
44068;SDS011;29738;51.234;5.484;2022-12-07T12:46:50;6.15;;;3.63;;
44068;SDS011;29738;51.234;5.484;2022-12-07T12:51:55;5.50;;;2.95;;
44068;SDS011;29738;51.234;5.484;2022-12-07T12:54:31;8.38;;;2.88;;
44068;SDS011;29738;51.234;5.484;2022-12-07T12:57:03;8.35;;;3.83;;
44068;SDS011;29738;51.234;5.484;2022-12-07T13:34:28;7.13;;;3.20;;
44068;SDS011;29738;51.234;5.484;2022-12-07T13:36:51;6.70;;;3.33;;
44068;SDS011;29738;51.234;5.484;2022-12-07T13:39:18;12.43;;;8.45;;
44068;SDS011;29738;51.234;5.484;2022-12-07T13:41:53;8.52;;;3.22;;
44068;SDS011;29738;51.234;5.484;2022-12-07T13:44:22;9.02;;;3.67;;
44068;SDS011;29738;51.234;5.484;2022-12-07T13:46:52;5.43;;;3.15;;
44068;SDS011;29738;51.234;5.484;2022-12-07T13:49:31;7.07;;;2.97;;
44068;SDS011;29738;51.234;5.484;2022-12-07T13:57:32;6.63;;;3.15;;
44068;SDS011;29738;51.234;5.484;2022-12-07T14:00:03;9.82;;;3.72;;
44068;SDS011;29738;51.234;5.484;2022-12-07T14:02:32;8.65;;;4.15;;
44068;SDS011;29738;51.234;5.484;2022-12-07T14:05:13;6.82;;;2.25;;
44068;SDS011;29738;51.234;5.484;2022-12-07T14:07:55;4.95;;;2.33;;
44068;SDS011;29738;51.234;5.484;2022-12-07T14:13:00;7.47;;;2.45;;
44068;SDS011;29738;51.234;5.484;2022-12-07T14:15:28;5.05;;;2.35;;
44068;SDS011;29738;51.234;5.484;2022-12-07T14:17:56;4.72;;;2.13;;
44068;SDS011;29738;51.234;5.484;2022-12-07T14:20:30;4.88;;;2.15;;
44068;SDS011;29738;51.234;5.484;2022-12-07T14:23:00;6.05;;;2.15;;
44068;SDS011;29738;51.234;5.484;2022-12-07T14:25:43;6.65;;;3.47;;
44068;SDS011;29738;51.234;5.484;2022-12-07T14:28:27;5.57;;;2.88;;
44068;SDS011;29738;51.234;5.484;2022-12-07T14:30:57;12.70;;;9.65;;
44068;SDS011;29738;51.234;5.484;2022-12-07T14:33:24;7.20;;;3.72;;
44068;SDS011;29738;51.234;5.484;2022-12-07T14:35:51;12.07;;;7.55;;
44068;SDS011;29738;51.234;5.484;2022-12-07T14:38:20;10.35;;;5.88;;
44068;SDS011;29738;51.234;5.484;2022-12-07T14:40:52;9.57;;;5.63;;
44068;SDS011;29738;51.234;5.484;2022-12-07T14:43:39;12.18;;;7.15;;
44068;SDS011;29738;51.234;5.484;2022-12-07T14:46:05;9.35;;;5.03;;
44068;SDS011;29738;51.234;5.484;2022-12-07T14:48:31;8.27;;;3.60;;
44068;SDS011;29738;51.234;5.484;2022-12-07T14:50:57;8.73;;;3.85;;
44068;SDS011;29738;51.234;5.484;2022-12-07T14:53:24;9.02;;;3.90;;
44068;SDS011;29738;51.234;5.484;2022-12-07T14:55:56;7.25;;;4.05;;
44068;SDS011;29738;51.234;5.484;2022-12-07T14:58:22;6.68;;;4.03;;
44068;SDS011;29738;51.234;5.484;2022-12-07T15:00:48;7.30;;;3.55;;
44068;SDS011;29738;51.234;5.484;2022-12-07T15:03:14;5.90;;;3.42;;
44068;SDS011;29738;51.234;5.484;2022-12-07T15:05:40;8.05;;;3.58;;
44068;SDS011;29738;51.234;5.484;2022-12-07T15:08:06;6.97;;;3.58;;
44068;SDS011;29738;51.234;5.484;2022-12-07T15:10:33;7.85;;;3.90;;
44068;SDS011;29738;51.234;5.484;2022-12-07T15:13:02;10.02;;;4.13;;
44068;SDS011;29738;51.234;5.484;2022-12-07T15:15:47;9.02;;;3.75;;
44068;SDS011;29738;51.234;5.484;2022-12-07T15:18:14;8.13;;;4.43;;
44068;SDS011;29738;51.234;5.484;2022-12-07T15:20:40;8.13;;;4.13;;
44068;SDS011;29738;51.234;5.484;2022-12-07T15:23:06;13.57;;;4.43;;
44068;SDS011;29738;51.234;5.484;2022-12-07T15:25:32;8.38;;;4.05;;
44068;SDS011;29738;51.234;5.484;2022-12-07T15:27:58;10.32;;;5.07;;
44068;SDS011;29738;51.234;5.484;2022-12-07T15:30:24;11.00;;;5.07;;
44068;SDS011;29738;51.234;5.484;2022-12-07T15:32:53;10.20;;;5.35;;
44068;SDS011;29738;51.234;5.484;2022-12-07T15:35:20;9.00;;;4.57;;
44068;SDS011;29738;51.234;5.484;2022-12-07T15:37:46;9.98;;;5.60;;
44068;SDS011;29738;51.234;5.484;2022-12-07T15:40:12;11.50;;;5.20;;
44068;SDS011;29738;51.234;5.484;2022-12-07T15:42:39;10.57;;;5.82;;
44068;SDS011;29738;51.234;5.484;2022-12-07T15:45:05;11.07;;;5.72;;
44068;SDS011;29738;51.234;5.484;2022-12-07T15:47:36;25.67;;;16.92;;
44068;SDS011;29738;51.234;5.484;2022-12-07T15:50:04;21.08;;;11.07;;
44068;SDS011;29738;51.234;5.484;2022-12-07T15:52:33;50.20;;;28.77;;
44068;SDS011;29738;51.234;5.484;2022-12-07T15:54:59;20.85;;;12.32;;
44068;SDS011;29738;51.234;5.484;2022-12-07T15:57:25;12.57;;;7.60;;
44068;SDS011;29738;51.234;5.484;2022-12-07T15:59:51;31.27;;;17.23;;
44068;SDS011;29738;51.234;5.484;2022-12-07T16:02:18;26.00;;;15.10;;
44068;SDS011;29738;51.234;5.484;2022-12-07T16:04:44;16.48;;;8.93;;
44068;SDS011;29738;51.234;5.484;2022-12-07T16:07:10;19.70;;;11.45;;
44068;SDS011;29738;51.234;5.484;2022-12-07T16:09:36;14.23;;;9.45;;
44068;SDS011;29738;51.234;5.484;2022-12-07T16:12:03;16.52;;;8.93;;
44068;SDS011;29738;51.234;5.484;2022-12-07T16:14:29;17.08;;;10.52;;
44068;SDS011;29738;51.234;5.484;2022-12-07T16:16:57;12.07;;;6.80;;
44068;SDS011;29738;51.234;5.484;2022-12-07T16:19:23;13.85;;;6.95;;
44068;SDS011;29738;51.234;5.484;2022-12-07T16:21:49;13.07;;;7.05;;
44068;SDS011;29738;51.234;5.484;2022-12-07T16:24:14;12.77;;;6.68;;
44068;SDS011;29738;51.234;5.484;2022-12-07T16:26:41;13.95;;;7.70;;
44068;SDS011;29738;51.234;5.484;2022-12-07T16:29:09;17.42;;;10.13;;
44068;SDS011;29738;51.234;5.484;2022-12-07T16:31:37;18.00;;;11.75;;
44068;SDS011;29738;51.234;5.484;2022-12-07T16:34:03;25.13;;;17.60;;
44068;SDS011;29738;51.234;5.484;2022-12-07T16:36:29;17.77;;;10.05;;
44068;SDS011;29738;51.234;5.484;2022-12-07T16:38:55;24.30;;;14.63;;
44068;SDS011;29738;51.234;5.484;2022-12-07T16:41:26;30.02;;;18.52;;
44068;SDS011;29738;51.234;5.484;2022-12-07T16:43:52;10.80;;;7.20;;
44068;SDS011;29738;51.234;5.484;2022-12-07T16:46:18;17.95;;;8.20;;
44068;SDS011;29738;51.234;5.484;2022-12-07T16:48:44;14.65;;;9.02;;
44068;SDS011;29738;51.234;5.484;2022-12-07T16:51:11;23.40;;;13.57;;
44068;SDS011;29738;51.234;5.484;2022-12-07T16:53:39;15.75;;;10.30;;
44068;SDS011;29738;51.234;5.484;2022-12-07T16:56:10;17.50;;;9.73;;
44068;SDS011;29738;51.234;5.484;2022-12-07T16:58:37;12.30;;;6.73;;
44068;SDS011;29738;51.234;5.484;2022-12-07T17:01:12;16.65;;;10.32;;
44068;SDS011;29738;51.234;5.484;2022-12-07T17:03:43;12.95;;;7.07;;
44068;SDS011;29738;51.234;5.484;2022-12-07T17:06:11;57.47;;;32.38;;
44068;SDS011;29738;51.234;5.484;2022-12-07T17:08:46;119.75;;;58.95;;
44068;SDS011;29738;51.234;5.484;2022-12-07T17:11:16;79.68;;;39.58;;